sensor_id;sensor_type;location;lat;lon;timestamp;P1;durP1;ratioP1;P2;durP2;ratioP2
56419;SDS011;42323;52.170;7.538;2024-01-25T00:01:44;736.80;;;449.45;;
56419;SDS011;42323;52.170;7.538;2024-01-25T00:04:11;724.33;;;439.83;;
56419;SDS011;42323;52.170;7.538;2024-01-25T00:06:38;736.53;;;448.92;;
56419;SDS011;42323;52.170;7.538;2024-01-25T00:09:04;776.92;;;450.50;;
56419;SDS011;42323;52.170;7.538;2024-01-25T00:11:33;723.35;;;439.55;;
56419;SDS011;42323;52.170;7.538;2024-01-25T00:14:00;774.75;;;448.13;;
56419;SDS011;42323;52.170;7.538;2024-01-25T00:19:07;715.60;;;437.77;;
56419;SDS011;42323;52.170;7.538;2024-01-25T00:26:57;722.38;;;441.13;;
56419;SDS011;42323;52.170;7.538;2024-01-25T01:15:17;726.22;;;446.23;;
56419;SDS011;42323;52.170;7.538;2024-01-25T01:17:44;774.28;;;452.77;;
56419;SDS011;42323;52.170;7.538;2024-01-25T01:20:11;721.15;;;443.02;;
56419;SDS011;42323;52.170;7.538;2024-01-25T01:22:37;772.72;;;450.48;;
56419;SDS011;42323;52.170;7.538;2024-01-25T01:25:04;725.97;;;444.75;;
56419;SDS011;42323;52.170;7.538;2024-01-25T01:27:30;721.10;;;446.20;;
56419;SDS011;42323;52.170;7.538;2024-01-25T01:29:57;725.90;;;444.70;;
56419;SDS011;42323;52.170;7.538;2024-01-25T01:32:24;781.58;;;451.92;;
56419;SDS011;42323;52.170;7.538;2024-01-25T01:34:50;727.55;;;448.45;;
56419;SDS011;42323;52.170;7.538;2024-01-25T01:56:10;710.57;;;436.40;;
56419;SDS011;42323;52.170;7.538;2024-01-25T01:58:37;765.53;;;447.27;;
56419;SDS011;42323;52.170;7.538;2024-01-25T02:01:04;718.05;;;441.98;;
56419;SDS011;42323;52.170;7.538;2024-01-25T02:03:31;718.33;;;439.70;;
56419;SDS011;42323;52.170;7.538;2024-01-25T02:05:58;768.90;;;449.90;;
56419;SDS011;42323;52.170;7.538;2024-01-25T02:08:29;712.30;;;440.67;;
56419;SDS011;42323;52.170;7.538;2024-01-25T02:10:55;717.95;;;446.17;;
56419;SDS011;42323;52.170;7.538;2024-01-25T02:13:22;765.85;;;449.05;;
56419;SDS011;42323;52.170;7.538;2024-01-25T02:39:39;698.08;;;451.05;;
56419;SDS011;42323;52.170;7.538;2024-01-25T02:42:05;720.70;;;458.90;;
56419;SDS011;42323;52.170;7.538;2024-01-25T02:44:32;732.30;;;468.20;;
56419;SDS011;42323;52.170;7.538;2024-01-25T02:46:58;771.60;;;466.05;;
56419;SDS011;42323;52.170;7.538;2024-01-25T02:49:25;767.10;;;460.15;;
56419;SDS011;42323;52.170;7.538;2024-01-25T02:51:51;762.65;;;457.15;;
56419;SDS011;42323;52.170;7.538;2024-01-25T02:54:18;715.17;;;452.17;;
56419;SDS011;42323;52.170;7.538;2024-01-25T02:56:44;713.95;;;454.52;;
56419;SDS011;42323;52.170;7.538;2024-01-25T02:59:11;716.72;;;456.85;;
56419;SDS011;42323;52.170;7.538;2024-01-25T03:01:38;758.22;;;454.58;;
56419;SDS011;42323;52.170;7.538;2024-01-25T03:04:05;708.60;;;452.17;;
56419;SDS011;42323;52.170;7.538;2024-01-25T03:06:32;700.53;;;447.75;;
56419;SDS011;42323;52.170;7.538;2024-01-25T04:00:09;669.43;;;432.53;;
56419;SDS011;42323;52.170;7.538;2024-01-25T04:02:35;660.97;;;430.98;;
56419;SDS011;42323;52.170;7.538;2024-01-25T04:05:02;666.75;;;434.08;;
56419;SDS011;42323;52.170;7.538;2024-01-25T04:07:28;669.40;;;434.33;;
56419;SDS011;42323;52.170;7.538;2024-01-25T04:09:55;668.25;;;436.48;;
56419;SDS011;42323;52.170;7.538;2024-01-25T04:12:21;659.22;;;425.45;;
56419;SDS011;42323;52.170;7.538;2024-01-25T04:14:49;657.22;;;428.10;;
56419;SDS011;42323;52.170;7.538;2024-01-25T04:17:16;663.22;;;426.75;;
56419;SDS011;42323;52.170;7.538;2024-01-25T04:19:43;709.55;;;434.42;;
56419;SDS011;42323;52.170;7.538;2024-01-25T04:22:10;667.00;;;432.88;;
56419;SDS011;42323;52.170;7.538;2024-01-25T04:24:36;659.53;;;430.35;;
56419;SDS011;42323;52.170;7.538;2024-01-25T04:27:03;654.45;;;426.02;;
56419;SDS011;42323;52.170;7.538;2024-01-25T04:29:30;659.78;;;430.15;;
56419;SDS011;42323;52.170;7.538;2024-01-25T04:31:57;656.10;;;427.52;;
56419;SDS011;42323;52.170;7.538;2024-01-25T04:34:23;704.33;;;432.00;;
56419;SDS011;42323;52.170;7.538;2024-01-25T04:55:36;633.80;;;410.48;;
56419;SDS011;42323;52.170;7.538;2024-01-25T04:58:03;681.13;;;414.05;;
56419;SDS011;42323;52.170;7.538;2024-01-25T05:00:29;630.00;;;407.30;;
56419;SDS011;42323;52.170;7.538;2024-01-25T05:02:56;632.45;;;405.75;;
56419;SDS011;42323;52.170;7.538;2024-01-25T05:05:22;634.42;;;410.77;;
56419;SDS011;42323;52.170;7.538;2024-01-25T05:07:49;635.10;;;406.77;;
56419;SDS011;42323;52.170;7.538;2024-01-25T05:10:16;626.95;;;404.65;;
56419;SDS011;42323;52.170;7.538;2024-01-25T05:12:42;676.55;;;409.77;;
56419;SDS011;42323;52.170;7.538;2024-01-25T05:31:21;650.58;;;398.20;;
56419;SDS011;42323;52.170;7.538;2024-01-25T05:33:48;598.65;;;388.48;;
56419;SDS011;42323;52.170;7.538;2024-01-25T05:36:15;604.20;;;392.05;;
56419;SDS011;42323;52.170;7.538;2024-01-25T05:38:42;649.08;;;396.33;;
56419;SDS011;42323;52.170;7.538;2024-01-25T05:41:08;595.13;;;388.40;;
56419;SDS011;42323;52.170;7.538;2024-01-25T05:43:35;595.50;;;388.15;;
56419;SDS011;42323;52.170;7.538;2024-01-25T05:46:01;647.15;;;394.02;;
56419;SDS011;42323;52.170;7.538;2024-01-25T05:48:30;595.33;;;384.85;;
56419;SDS011;42323;52.170;7.538;2024-01-25T05:50:57;601.67;;;387.38;;
56419;SDS011;42323;52.170;7.538;2024-01-25T05:53:23;594.28;;;385.58;;
56419;SDS011;42323;52.170;7.538;2024-01-25T05:55:50;590.45;;;382.33;;
56419;SDS011;42323;52.170;7.538;2024-01-25T05:58:16;595.17;;;383.48;;
56419;SDS011;42323;52.170;7.538;2024-01-25T06:00:43;595.67;;;384.08;;
56419;SDS011;42323;52.170;7.538;2024-01-25T06:03:10;630.17;;;386.98;;
56419;SDS011;42323;52.170;7.538;2024-01-25T06:05:37;587.90;;;380.38;;
56419;SDS011;42323;52.170;7.538;2024-01-25T06:08:04;625.90;;;387.60;;
56419;SDS011;42323;52.170;7.538;2024-01-25T06:10:30;586.22;;;386.42;;
56419;SDS011;42323;52.170;7.538;2024-01-25T06:12:57;591.55;;;384.67;;
56419;SDS011;42323;52.170;7.538;2024-01-25T06:36:52;574.03;;;377.38;;
56419;SDS011;42323;52.170;7.538;2024-01-25T06:39:19;622.55;;;387.70;;
56419;SDS011;42323;52.170;7.538;2024-01-25T06:41:45;577.22;;;382.70;;
56419;SDS011;42323;52.170;7.538;2024-01-25T06:44:12;620.10;;;384.67;;
56419;SDS011;42323;52.170;7.538;2024-01-25T06:46:39;580.80;;;383.00;;
56419;SDS011;42323;52.170;7.538;2024-01-25T06:49:05;579.80;;;384.63;;
56419;SDS011;42323;52.170;7.538;2024-01-25T06:51:33;565.05;;;377.45;;
56419;SDS011;42323;52.170;7.538;2024-01-25T06:54:00;571.38;;;384.00;;
56419;SDS011;42323;52.170;7.538;2024-01-25T06:56:26;573.60;;;385.42;;
56419;SDS011;42323;52.170;7.538;2024-01-25T06:58:53;577.05;;;388.08;;
56419;SDS011;42323;52.170;7.538;2024-01-25T07:01:23;580.63;;;391.60;;
56419;SDS011;42323;52.170;7.538;2024-01-25T07:03:50;617.92;;;394.70;;
56419;SDS011;42323;52.170;7.538;2024-01-25T07:06:18;576.58;;;389.42;;
56419;SDS011;42323;52.170;7.538;2024-01-25T07:08:45;577.88;;;392.63;;
56419;SDS011;42323;52.170;7.538;2024-01-25T07:11:11;631.97;;;397.90;;
56419;SDS011;42323;52.170;7.538;2024-01-25T07:13:38;624.75;;;398.02;;
56419;SDS011;42323;52.170;7.538;2024-01-25T07:16:05;616.70;;;393.02;;
56419;SDS011;42323;52.170;7.538;2024-01-25T07:18:31;577.20;;;391.52;;
56419;SDS011;42323;52.170;7.538;2024-01-25T07:21:00;576.83;;;392.98;;
56419;SDS011;42323;52.170;7.538;2024-01-25T07:23:50;571.03;;;390.27;;
56419;SDS011;42323;52.170;7.538;2024-01-25T07:26:19;565.88;;;386.90;;
56419;SDS011;42323;52.170;7.538;2024-01-25T07:28:46;573.38;;;387.23;;
56419;SDS011;42323;52.170;7.538;2024-01-25T07:31:12;611.83;;;389.40;;
56419;SDS011;42323;52.170;7.538;2024-01-25T07:33:39;574.58;;;385.20;;
56419;SDS011;42323;52.170;7.538;2024-01-25T07:36:06;574.75;;;386.77;;
56419;SDS011;42323;52.170;7.538;2024-01-25T07:38:32;582.05;;;390.33;;
56419;SDS011;42323;52.170;7.538;2024-01-25T07:40:59;575.90;;;387.45;;
56419;SDS011;42323;52.170;7.538;2024-01-25T07:43:25;573.97;;;387.40;;
56419;SDS011;42323;52.170;7.538;2024-01-25T07:45:52;616.97;;;393.55;;
56419;SDS011;42323;52.170;7.538;2024-01-25T07:48:20;575.35;;;391.02;;
56419;SDS011;42323;52.170;7.538;2024-01-25T07:50:47;579.30;;;394.92;;
56419;SDS011;42323;52.170;7.538;2024-01-25T07:53:13;632.75;;;400.60;;
56419;SDS011;42323;52.170;7.538;2024-01-25T07:55:42;571.55;;;390.50;;
56419;SDS011;42323;52.170;7.538;2024-01-25T08:17:03;587.55;;;394.98;;
56419;SDS011;42323;52.170;7.538;2024-01-25T08:19:29;592.13;;;406.05;;
56419;SDS011;42323;52.170;7.538;2024-01-25T08:21:56;591.78;;;395.70;;
56419;SDS011;42323;52.170;7.538;2024-01-25T08:24:22;578.00;;;386.02;;
56419;SDS011;42323;52.170;7.538;2024-01-25T08:26:49;586.28;;;387.13;;
56419;SDS011;42323;52.170;7.538;2024-01-25T08:29:15;568.80;;;379.95;;
56419;SDS011;42323;52.170;7.538;2024-01-25T08:31:42;589.03;;;390.98;;
56419;SDS011;42323;52.170;7.538;2024-01-25T08:34:08;597.15;;;397.88;;
56419;SDS011;42323;52.170;7.538;2024-01-25T08:36:35;598.05;;;395.25;;
56419;SDS011;42323;52.170;7.538;2024-01-25T08:39:02;642.75;;;397.52;;
56419;SDS011;42323;52.170;7.538;2024-01-25T08:41:30;600.08;;;396.25;;
56419;SDS011;42323;52.170;7.538;2024-01-25T08:43:58;646.78;;;400.23;;
56419;SDS011;42323;52.170;7.538;2024-01-25T08:46:25;604.38;;;396.48;;
56419;SDS011;42323;52.170;7.538;2024-01-25T08:48:51;594.05;;;392.33;;
56419;SDS011;42323;52.170;7.538;2024-01-25T08:51:18;601.97;;;393.02;;
56419;SDS011;42323;52.170;7.538;2024-01-25T08:53:44;604.75;;;395.13;;
56419;SDS011;42323;52.170;7.538;2024-01-25T09:19:52;606.25;;;399.17;;
56419;SDS011;42323;52.170;7.538;2024-01-25T09:22:20;652.33;;;399.05;;
56419;SDS011;42323;52.170;7.538;2024-01-25T09:24:46;611.33;;;393.48;;
56419;SDS011;42323;52.170;7.538;2024-01-25T09:27:13;666.42;;;401.05;;
56419;SDS011;42323;52.170;7.538;2024-01-25T09:29:41;615.67;;;397.42;;
56419;SDS011;42323;52.170;7.538;2024-01-25T09:32:09;613.60;;;390.63;;
56419;SDS011;42323;52.170;7.538;2024-01-25T09:34:36;613.10;;;393.13;;
56419;SDS011;42323;52.170;7.538;2024-01-25T09:39:48;606.97;;;386.75;;
56419;SDS011;42323;52.170;7.538;2024-01-25T09:44:49;663.33;;;398.10;;
56419;SDS011;42323;52.170;7.538;2024-01-25T09:55:16;621.28;;;389.15;;
56419;SDS011;42323;52.170;7.538;2024-01-25T09:57:46;639.03;;;400.95;;
56419;SDS011;42323;52.170;7.538;2024-01-25T10:00:13;643.95;;;403.48;;
56419;SDS011;42323;52.170;7.538;2024-01-25T10:02:39;687.22;;;405.15;;
56419;SDS011;42323;52.170;7.538;2024-01-25T10:05:06;693.67;;;410.92;;
56419;SDS011;42323;52.170;7.538;2024-01-25T10:07:40;667.47;;;409.05;;
56419;SDS011;42323;52.170;7.538;2024-01-25T10:10:08;667.22;;;408.13;;
56419;SDS011;42323;52.170;7.538;2024-01-25T10:12:36;668.15;;;411.20;;
56419;SDS011;42323;52.170;7.538;2024-01-25T10:15:03;668.72;;;410.10;;
56419;SDS011;42323;52.170;7.538;2024-01-25T10:17:30;673.75;;;411.17;;
56419;SDS011;42323;52.170;7.538;2024-01-25T10:25:41;679.78;;;415.15;;
56419;SDS011;42323;52.170;7.538;2024-01-25T10:33:24;679.40;;;411.60;;
56419;SDS011;42323;52.170;7.538;2024-01-25T10:35:51;687.55;;;415.13;;
56419;SDS011;42323;52.170;7.538;2024-01-25T10:43:42;698.80;;;420.10;;
56419;SDS011;42323;52.170;7.538;2024-01-25T10:48:40;693.10;;;417.77;;
56419;SDS011;42323;52.170;7.538;2024-01-25T10:51:07;691.10;;;413.17;;
56419;SDS011;42323;52.170;7.538;2024-01-25T10:53:35;686.17;;;409.25;;
56419;SDS011;42323;52.170;7.538;2024-01-25T10:56:02;719.30;;;407.35;;
56419;SDS011;42323;52.170;7.538;2024-01-25T10:58:32;727.45;;;411.35;;
56419;SDS011;42323;52.170;7.538;2024-01-25T11:01:07;690.08;;;411.65;;
56419;SDS011;42323;52.170;7.538;2024-01-25T11:03:35;701.25;;;418.23;;
56419;SDS011;42323;52.170;7.538;2024-01-25T11:06:12;710.00;;;416.15;;
56419;SDS011;42323;52.170;7.538;2024-01-25T11:16:32;794.05;;;439.88;;
56419;SDS011;42323;52.170;7.538;2024-01-25T11:19:01;812.33;;;451.70;;
56419;SDS011;42323;52.170;7.538;2024-01-25T11:21:41;821.90;;;451.58;;
56419;SDS011;42323;52.170;7.538;2024-01-25T11:24:17;822.65;;;448.50;;
56419;SDS011;42323;52.170;7.538;2024-01-25T11:26:43;832.35;;;448.10;;
56419;SDS011;42323;52.170;7.538;2024-01-25T11:29:14;834.08;;;444.13;;
56419;SDS011;42323;52.170;7.538;2024-01-25T11:31:43;847.67;;;448.23;;
56419;SDS011;42323;52.170;7.538;2024-01-25T11:34:10;867.17;;;457.15;;
56419;SDS011;42323;52.170;7.538;2024-01-25T11:36:37;864.92;;;455.13;;
56419;SDS011;42323;52.170;7.538;2024-01-25T11:39:04;879.05;;;457.45;;
56419;SDS011;42323;52.170;7.538;2024-01-25T11:41:32;885.00;;;460.63;;
56419;SDS011;42323;52.170;7.538;2024-01-25T11:43:59;882.72;;;462.40;;
56419;SDS011;42323;52.170;7.538;2024-01-25T11:46:25;917.13;;;467.52;;
56419;SDS011;42323;52.170;7.538;2024-01-25T11:48:52;884.00;;;465.00;;
56419;SDS011;42323;52.170;7.538;2024-01-25T11:51:19;873.40;;;465.13;;
56419;SDS011;42323;52.170;7.538;2024-01-25T11:53:45;872.30;;;468.15;;
56419;SDS011;42323;52.170;7.538;2024-01-25T11:56:16;874.95;;;469.90;;
56419;SDS011;42323;52.170;7.538;2024-01-25T11:58:44;898.10;;;479.50;;
56419;SDS011;42323;52.170;7.538;2024-01-25T12:03:39;880.30;;;476.20;;
56419;SDS011;42323;52.170;7.538;2024-01-25T12:06:06;915.70;;;487.15;;
56419;SDS011;42323;52.170;7.538;2024-01-25T12:08:35;967.10;;;496.60;;
56419;SDS011;42323;52.170;7.538;2024-01-25T12:11:02;935.00;;;493.10;;
56419;SDS011;42323;52.170;7.538;2024-01-25T12:13:36;957.30;;;501.00;;
56419;SDS011;42323;52.170;7.538;2024-01-25T12:16:02;953.60;;;494.00;;
56419;SDS011;42323;52.170;7.538;2024-01-25T12:42:54;914.90;;;488.70;;
56419;SDS011;42323;52.170;7.538;2024-01-25T13:44:22;1106.75;;;569.15;;
56419;SDS011;42323;52.170;7.538;2024-01-25T13:46:49;968.50;;;468.50;;
56419;SDS011;42323;52.170;7.538;2024-01-25T13:49:16;742.08;;;361.95;;
56419;SDS011;42323;52.170;7.538;2024-01-25T13:51:46;739.33;;;357.88;;
56419;SDS011;42323;52.170;7.538;2024-01-25T13:54:14;729.38;;;352.92;;
56419;SDS011;42323;52.170;7.538;2024-01-25T13:56:41;711.58;;;351.80;;
56419;SDS011;42323;52.170;7.538;2024-01-25T13:59:07;735.45;;;368.20;;
56419;SDS011;42323;52.170;7.538;2024-01-25T14:01:33;721.45;;;362.52;;
56419;SDS011;42323;52.170;7.538;2024-01-25T14:04:00;757.88;;;385.35;;
56419;SDS011;42323;52.170;7.538;2024-01-25T14:06:26;806.92;;;422.33;;
56419;SDS011;42323;52.170;7.538;2024-01-25T14:16:57;803.78;;;444.77;;
56419;SDS011;42323;52.170;7.538;2024-01-25T14:19:23;857.20;;;478.13;;
56419;SDS011;42323;52.170;7.538;2024-01-25T14:21:50;915.20;;;520.55;;
56419;SDS011;42323;52.170;7.538;2024-01-25T14:24:20;1071.30;;;586.00;;
56419;SDS011;42323;52.170;7.538;2024-01-25T14:26:46;983.25;;;573.15;;
56419;SDS011;42323;52.170;7.538;2024-01-25T14:29:13;1053.97;;;585.03;;
56419;SDS011;42323;52.170;7.538;2024-01-25T14:31:40;975.55;;;572.72;;
56419;SDS011;42323;52.170;7.538;2024-01-25T14:34:07;1031.72;;;579.70;;
56419;SDS011;42323;52.170;7.538;2024-01-25T14:44:33;965.47;;;576.42;;
56419;SDS011;42323;52.170;7.538;2024-01-25T14:46:59;950.92;;;567.47;;
56419;SDS011;42323;52.170;7.538;2024-01-25T15:05:53;949.17;;;569.72;;
56419;SDS011;42323;52.170;7.538;2024-01-25T15:24:24;998.92;;;575.53;;
56419;SDS011;42323;52.170;7.538;2024-01-25T15:26:52;926.22;;;565.03;;
56419;SDS011;42323;52.170;7.538;2024-01-25T15:29:18;921.33;;;558.67;;
56419;SDS011;42323;52.170;7.538;2024-01-25T15:31:45;808.35;;;500.48;;
56419;SDS011;42323;52.170;7.538;2024-01-25T15:34:11;774.80;;;479.33;;
56419;SDS011;42323;52.170;7.538;2024-01-25T15:36:38;832.90;;;489.88;;
56419;SDS011;42323;52.170;7.538;2024-01-25T15:39:10;776.65;;;483.98;;
56419;SDS011;42323;52.170;7.538;2024-01-25T15:41:37;771.40;;;480.20;;
56419;SDS011;42323;52.170;7.538;2024-01-25T15:44:03;827.60;;;487.52;;
56419;SDS011;42323;52.170;7.538;2024-01-25T15:46:30;765.47;;;478.45;;
56419;SDS011;42323;52.170;7.538;2024-01-25T15:48:56;759.10;;;472.92;;
56419;SDS011;42323;52.170;7.538;2024-01-25T15:51:23;808.38;;;480.30;;
56419;SDS011;42323;52.170;7.538;2024-01-25T15:53:50;749.63;;;474.88;;
56419;SDS011;42323;52.170;7.538;2024-01-25T15:56:16;754.38;;;476.42;;
56419;SDS011;42323;52.170;7.538;2024-01-25T15:58:43;741.22;;;473.38;;
56419;SDS011;42323;52.170;7.538;2024-01-25T16:01:09;729.42;;;468.50;;
56419;SDS011;42323;52.170;7.538;2024-01-25T16:03:36;729.88;;;471.73;;
56419;SDS011;42323;52.170;7.538;2024-01-25T16:06:02;779.95;;;475.33;;
56419;SDS011;42323;52.170;7.538;2024-01-25T16:08:29;724.13;;;467.80;;
56419;SDS011;42323;52.170;7.538;2024-01-25T16:10:56;721.42;;;467.83;;
56419;SDS011;42323;52.170;7.538;2024-01-25T16:13:22;720.65;;;466.33;;
56419;SDS011;42323;52.170;7.538;2024-01-25T16:15:49;718.72;;;469.77;;
56419;SDS011;42323;52.170;7.538;2024-01-25T16:18:15;721.05;;;464.90;;
56419;SDS011;42323;52.170;7.538;2024-01-25T16:20:43;770.95;;;472.10;;
56419;SDS011;42323;52.170;7.538;2024-01-25T16:23:10;721.85;;;470.30;;
56419;SDS011;42323;52.170;7.538;2024-01-25T16:30:51;723.03;;;470.80;;
56419;SDS011;42323;52.170;7.538;2024-01-25T16:33:17;726.53;;;469.60;;
56419;SDS011;42323;52.170;7.538;2024-01-25T16:35:44;727.88;;;471.83;;
56419;SDS011;42323;52.170;7.538;2024-01-25T16:38:11;726.65;;;468.83;;
56419;SDS011;42323;52.170;7.538;2024-01-25T17:15:36;726.05;;;471.60;;
56419;SDS011;42323;52.170;7.538;2024-01-25T17:18:02;782.72;;;477.30;;
56419;SDS011;42323;52.170;7.538;2024-01-25T17:20:29;723.17;;;466.60;;
56419;SDS011;42323;52.170;7.538;2024-01-25T17:22:57;725.90;;;465.00;;
56419;SDS011;42323;52.170;7.538;2024-01-25T17:25:23;724.42;;;464.42;;
56419;SDS011;42323;52.170;7.538;2024-01-25T17:27:50;720.65;;;464.13;;
56419;SDS011;42323;52.170;7.538;2024-01-25T17:30:20;728.13;;;466.90;;
56419;SDS011;42323;52.170;7.538;2024-01-25T17:32:46;774.60;;;473.45;;
56419;SDS011;42323;52.170;7.538;2024-01-25T17:35:14;716.90;;;462.98;;
56419;SDS011;42323;52.170;7.538;2024-01-25T17:56:27;768.30;;;476.50;;
56419;SDS011;42323;52.170;7.538;2024-01-25T17:58:53;716.42;;;472.25;;
56419;SDS011;42323;52.170;7.538;2024-01-25T18:01:21;722.60;;;472.95;;
56419;SDS011;42323;52.170;7.538;2024-01-25T18:19:53;724.08;;;474.67;;
56419;SDS011;42323;52.170;7.538;2024-01-25T18:22:19;721.72;;;471.83;;
56419;SDS011;42323;52.170;7.538;2024-01-25T18:24:46;773.20;;;476.35;;
56419;SDS011;42323;52.170;7.538;2024-01-25T18:27:12;728.70;;;469.08;;
56419;SDS011;42323;52.170;7.538;2024-01-25T18:29:39;777.08;;;478.50;;
56419;SDS011;42323;52.170;7.538;2024-01-25T18:32:09;726.47;;;475.80;;
56419;SDS011;42323;52.170;7.538;2024-01-25T18:34:35;719.40;;;468.65;;
56419;SDS011;42323;52.170;7.538;2024-01-25T18:37:04;726.58;;;470.85;;
56419;SDS011;42323;52.170;7.538;2024-01-25T18:39:31;733.00;;;479.38;;
56419;SDS011;42323;52.170;7.538;2024-01-25T18:41:57;784.88;;;487.38;;
56419;SDS011;42323;52.170;7.538;2024-01-25T18:44:24;784.80;;;488.08;;
56419;SDS011;42323;52.170;7.538;2024-01-25T18:46:50;726.40;;;474.63;;
56419;SDS011;42323;52.170;7.538;2024-01-25T18:49:17;732.70;;;482.52;;
56419;SDS011;42323;52.170;7.538;2024-01-25T18:51:44;727.53;;;478.58;;
56419;SDS011;42323;52.170;7.538;2024-01-25T18:54:11;792.33;;;489.75;;
56419;SDS011;42323;52.170;7.538;2024-01-25T18:56:38;721.55;;;473.02;;
56419;SDS011;42323;52.170;7.538;2024-01-25T18:59:05;730.15;;;476.77;;
56419;SDS011;42323;52.170;7.538;2024-01-25T19:01:32;785.88;;;488.48;;
56419;SDS011;42323;52.170;7.538;2024-01-25T19:28:09;725.67;;;484.42;;
56419;SDS011;42323;52.170;7.538;2024-01-25T19:33:10;711.23;;;472.93;;
56419;SDS011;42323;52.170;7.538;2024-01-25T19:41:22;731.63;;;481.15;;
56419;SDS011;42323;52.170;7.538;2024-01-25T19:46:24;709.83;;;476.73;;
56419;SDS011;42323;52.170;7.538;2024-01-25T19:48:50;787.00;;;494.63;;
56419;SDS011;42323;52.170;7.538;2024-01-25T19:56:41;726.03;;;482.45;;
56419;SDS011;42323;52.170;7.538;2024-01-25T19:59:07;720.78;;;477.17;;
56419;SDS011;42323;52.170;7.538;2024-01-25T20:01:34;778.65;;;488.60;;
56419;SDS011;42323;52.170;7.538;2024-01-25T20:06:43;777.83;;;489.48;;
56419;SDS011;42323;52.170;7.538;2024-01-25T20:09:10;715.17;;;475.52;;
56419;SDS011;42323;52.170;7.538;2024-01-25T20:11:36;721.58;;;477.15;;
56419;SDS011;42323;52.170;7.538;2024-01-25T20:14:03;775.10;;;480.98;;
56419;SDS011;42323;52.170;7.538;2024-01-25T20:16:29;615.83;;;382.70;;
56419;SDS011;42323;52.170;7.538;2024-01-25T20:18:56;610.05;;;375.65;;
56419;SDS011;42323;52.170;7.538;2024-01-25T20:26:44;625.63;;;389.02;;
56419;SDS011;42323;52.170;7.538;2024-01-25T20:37:02;712.10;;;473.17;;
56419;SDS011;42323;52.170;7.538;2024-01-25T20:39:29;717.17;;;474.15;;
56419;SDS011;42323;52.170;7.538;2024-01-25T20:41:55;762.53;;;473.55;;
56419;SDS011;42323;52.170;7.538;2024-01-25T20:44:22;725.40;;;476.40;;
56419;SDS011;42323;52.170;7.538;2024-01-25T20:46:49;725.40;;;481.52;;
56419;SDS011;42323;52.170;7.538;2024-01-25T20:49:18;779.03;;;485.33;;
56419;SDS011;42323;52.170;7.538;2024-01-25T20:51:45;722.05;;;474.75;;
56419;SDS011;42323;52.170;7.538;2024-01-25T20:54:11;716.67;;;469.08;;
56419;SDS011;42323;52.170;7.538;2024-01-25T20:56:38;726.00;;;477.88;;
56419;SDS011;42323;52.170;7.538;2024-01-25T21:01:38;718.88;;;474.77;;
56419;SDS011;42323;52.170;7.538;2024-01-25T21:04:05;722.60;;;477.60;;
56419;SDS011;42323;52.170;7.538;2024-01-25T21:06:32;774.88;;;481.08;;
56419;SDS011;42323;52.170;7.538;2024-01-25T21:08:58;714.58;;;470.20;;
56419;SDS011;42323;52.170;7.538;2024-01-25T21:11:25;783.45;;;486.17;;
56419;SDS011;42323;52.170;7.538;2024-01-25T21:13:52;772.10;;;479.30;;
56419;SDS011;42323;52.170;7.538;2024-01-25T21:16:18;771.83;;;478.50;;
56419;SDS011;42323;52.170;7.538;2024-01-25T21:18:49;724.78;;;474.17;;
56419;SDS011;42323;52.170;7.538;2024-01-25T21:21:16;724.17;;;472.67;;
56419;SDS011;42323;52.170;7.538;2024-01-25T21:23:42;778.97;;;484.83;;
56419;SDS011;42323;52.170;7.538;2024-01-25T21:26:09;722.30;;;472.20;;
56419;SDS011;42323;52.170;7.538;2024-01-25T21:28:35;781.47;;;483.95;;
56419;SDS011;42323;52.170;7.538;2024-01-25T21:31:02;723.30;;;475.10;;
56419;SDS011;42323;52.170;7.538;2024-01-25T21:33:29;786.63;;;487.65;;
56419;SDS011;42323;52.170;7.538;2024-01-25T21:35:56;722.83;;;472.92;;
56419;SDS011;42323;52.170;7.538;2024-01-25T21:38:23;720.28;;;471.88;;
56419;SDS011;42323;52.170;7.538;2024-01-25T21:40:50;726.53;;;477.90;;
56419;SDS011;42323;52.170;7.538;2024-01-25T21:43:17;775.90;;;481.58;;
56419;SDS011;42323;52.170;7.538;2024-01-25T21:45:43;720.10;;;475.17;;
56419;SDS011;42323;52.170;7.538;2024-01-25T21:48:10;777.53;;;479.33;;
56419;SDS011;42323;52.170;7.538;2024-01-25T21:50:37;771.90;;;475.08;;
56419;SDS011;42323;52.170;7.538;2024-01-25T21:53:03;717.20;;;471.50;;
56419;SDS011;42323;52.170;7.538;2024-01-25T21:55:33;720.50;;;471.85;;
56419;SDS011;42323;52.170;7.538;2024-01-25T21:58:00;724.65;;;472.58;;
56419;SDS011;42323;52.170;7.538;2024-01-25T22:00:27;733.22;;;481.73;;
56419;SDS011;42323;52.170;7.538;2024-01-25T22:02:54;730.83;;;481.38;;
56419;SDS011;42323;52.170;7.538;2024-01-25T22:05:22;732.88;;;478.73;;
56419;SDS011;42323;52.170;7.538;2024-01-25T22:07:49;782.72;;;483.98;;
56419;SDS011;42323;52.170;7.538;2024-01-25T22:10:15;789.90;;;485.55;;
56419;SDS011;42323;52.170;7.538;2024-01-25T22:12:42;728.72;;;475.92;;
56419;SDS011;42323;52.170;7.538;2024-01-25T22:15:08;726.40;;;471.65;;
56419;SDS011;42323;52.170;7.538;2024-01-25T22:17:35;738.03;;;482.45;;
56419;SDS011;42323;52.170;7.538;2024-01-25T22:20:02;743.63;;;482.27;;
56419;SDS011;42323;52.170;7.538;2024-01-25T22:22:29;791.53;;;486.90;;
56419;SDS011;42323;52.170;7.538;2024-01-25T22:24:57;736.47;;;476.42;;
56419;SDS011;42323;52.170;7.538;2024-01-25T22:27:23;743.00;;;478.40;;
56419;SDS011;42323;52.170;7.538;2024-01-25T22:29:55;740.47;;;476.30;;
56419;SDS011;42323;52.170;7.538;2024-01-25T22:32:22;727.95;;;474.38;;
56419;SDS011;42323;52.170;7.538;2024-01-25T22:34:48;737.55;;;477.13;;
56419;SDS011;42323;52.170;7.538;2024-01-25T22:37:15;731.50;;;472.00;;
56419;SDS011;42323;52.170;7.538;2024-01-25T22:39:42;742.20;;;485.40;;
56419;SDS011;42323;52.170;7.538;2024-01-25T22:42:08;787.92;;;483.90;;
56419;SDS011;42323;52.170;7.538;2024-01-25T22:44:35;728.08;;;471.13;;
56419;SDS011;42323;52.170;7.538;2024-01-25T22:47:01;784.35;;;481.13;;
56419;SDS011;42323;52.170;7.538;2024-01-25T22:49:31;730.08;;;474.00;;
56419;SDS011;42323;52.170;7.538;2024-01-25T22:51:58;730.53;;;474.13;;
56419;SDS011;42323;52.170;7.538;2024-01-25T22:54:24;731.63;;;474.45;;
56419;SDS011;42323;52.170;7.538;2024-01-25T22:56:51;792.28;;;487.27;;
56419;SDS011;42323;52.170;7.538;2024-01-25T22:59:18;733.03;;;480.27;;
56419;SDS011;42323;52.170;7.538;2024-01-25T23:01:44;730.47;;;471.60;;
56419;SDS011;42323;52.170;7.538;2024-01-25T23:04:11;775.53;;;478.83;;
56419;SDS011;42323;52.170;7.538;2024-01-25T23:06:38;780.30;;;482.35;;
56419;SDS011;42323;52.170;7.538;2024-01-25T23:09:05;779.67;;;480.20;;
56419;SDS011;42323;52.170;7.538;2024-01-25T23:11:32;729.60;;;473.45;;